Time;durP1;ratioP1;P1;durP2;ratioP2;P2;SDS_P1;SDS_P2;PMS_P1;PMS_P2;Temp;Humidity;BMP_temperature;BMP_pressure;BME280_temperature;BME280_humidity;BME280_pressure;Samples;Min_cycle;Max_cycle;Signal;HPM_P1;HPM_P2
2020/12/08 00:01:31;;;;;;;10.07;7.57;;;3.30;99.90;;;;;;5012989;28;20219;-79
2020/12/08 00:03:57;;;;;;;12.33;8.63;;;3.40;99.90;;;;;;5011720;28;20250;-79
2020/12/08 00:06:22;;;;;;;10.47;8.23;;;3.40;99.90;;;;;;5009623;28;20184;-79
2020/12/08 00:08:48;;;;;;;10.00;7.53;;;3.50;99.90;;;;;;5008043;28;20180;-78
2020/12/08 00:11:16;;;;;;;11.83;7.57;;;3.40;99.90;;;;;;5008367;28;20188;-79
2020/12/08 00:13:43;;;;;;;9.47;7.87;;;3.50;99.90;;;;;;5007770;28;20196;-78
2020/12/08 00:16:08;;;;;;;11.43;8.30;;;3.50;99.90;;;;;;5007762;28;20191;-78
2020/12/08 00:18:34;;;;;;;10.40;8.57;;;3.40;99.90;;;;;;5008463;28;20548;-78
2020/12/08 00:20:59;;;;;;;11.80;8.63;;;3.40;99.90;;;;;;5008425;28;20663;-78
2020/12/08 00:23:25;;;;;;;11.97;8.70;;;3.40;99.90;;;;;;5008557;28;20183;-78
2020/12/08 00:25:50;;;;;;;10.93;8.27;;;3.30;99.90;;;;;;5012591;28;20204;-79
2020/12/08 00:28:16;;;;;;;10.70;8.40;;;3.30;99.90;;;;;;5012953;28;20704;-79
2020/12/08 00:30:41;;;;;;;10.33;8.43;;;3.30;99.90;;;;;;5013601;28;20254;-79
2020/12/08 00:33:07;;;;;;;10.40;7.93;;;3.40;99.90;;;;;;5014106;28;20263;-78
2020/12/08 00:35:32;;;;;;;10.93;7.90;;;3.40;99.90;;;;;;5013906;28;20299;-78
2020/12/08 00:37:58;;;;;;;12.07;7.90;;;3.40;99.90;;;;;;5012348;28;20267;-78
2020/12/08 00:40:23;;;;;;;12.67;8.60;;;3.40;99.90;;;;;;5014369;28;20244;-78
2020/12/08 00:42:49;;;;;;;12.13;8.47;;;3.40;99.90;;;;;;5031145;28;20187;-78
2020/12/08 00:45:14;;;;;;;10.67;8.50;;;3.40;99.90;;;;;;5014790;28;20220;-79
2020/12/08 00:47:40;;;;;;;12.23;8.30;;;3.40;99.90;;;;;;5014502;28;20168;-79
2020/12/08 00:50:06;;;;;;;11.70;8.70;;;3.30;99.90;;;;;;5010895;28;20184;-78
2020/12/08 00:52:31;;;;;;;10.90;8.27;;;3.30;99.90;;;;;;5010825;28;20184;-77
2020/12/08 00:54:57;;;;;;;11.90;8.57;;;3.20;99.90;;;;;;5010525;28;20204;-79
2020/12/08 00:57:22;;;;;;;10.20;8.00;;;3.20;99.90;;;;;;5027091;28;20242;-79
2020/12/08 00:59:48;;;;;;;9.97;8.13;;;3.20;99.90;;;;;;5010802;28;20188;-78
2020/12/08 01:02:15;;;;;;;10.77;8.57;;;3.10;99.90;;;;;;5010965;28;20235;-78
2020/12/08 01:04:41;;;;;;;11.43;8.70;;;3.20;99.90;;;;;;5016052;28;20703;-78
2020/12/08 01:07:07;;;;;;;13.33;9.20;;;3.10;99.90;;;;;;5013822;28;20179;-79
2020/12/08 01:09:32;;;;;;;13.37;10.30;;;3.20;99.90;;;;;;5013729;28;20625;-78
2020/12/08 01:11:58;;;;;;;12.97;8.27;;;3.20;99.90;;;;;;5013935;28;20660;-78
2020/12/08 01:14:23;;;;;;;11.57;9.20;;;3.20;99.90;;;;;;5014211;28;20241;-78
2020/12/08 01:16:49;;;;;;;11.73;8.80;;;3.10;99.90;;;;;;5014482;28;20190;-78
2020/12/08 01:19:14;;;;;;;10.57;8.50;;;3.00;99.90;;;;;;5014540;28;20184;-79
2020/12/08 01:21:40;;;;;;;12.13;8.80;;;3.00;99.90;;;;;;5014958;28;20187;-79
2020/12/08 01:24:05;;;;;;;11.03;8.50;;;3.00;99.90;;;;;;5014597;28;20212;-79
2020/12/08 01:26:31;;;;;;;11.00;8.83;;;3.00;99.90;;;;;;5014160;28;20180;-79
2020/12/08 01:28:56;;;;;;;10.37;7.73;;;3.10;99.90;;;;;;5014251;28;20171;-79
2020/12/08 01:31:30;;;;;;;9.73;8.20;;;3.10;99.90;;;;;;5013949;28;20183;-79
2020/12/08 01:33:55;;;;;;;12.30;8.70;;;3.10;99.90;;;;;;5014189;28;20266;-80
2020/12/08 01:36:21;;;;;;;12.43;8.47;;;3.00;99.90;;;;;;5013244;28;20246;-78
2020/12/08 01:38:46;;;;;;;12.43;9.03;;;3.00;99.90;;;;;;5014194;28;20184;-78
2020/12/08 01:41:12;;;;;;;9.20;7.67;;;3.00;99.90;;;;;;5013857;28;20202;-79
2020/12/08 01:43:45;;;;;;;11.80;8.50;;;3.10;99.90;;;;;;5013646;28;20179;-79
2020/12/08 01:46:11;;;;;;;10.87;8.03;;;3.20;99.90;;;;;;5013742;28;20217;-78
2020/12/08 01:48:37;;;;;;;9.93;8.03;;;3.10;99.90;;;;;;5013924;28;20183;-79
2020/12/08 01:51:02;;;;;;;11.60;8.30;;;3.10;99.90;;;;;;5013772;28;20172;-79
2020/12/08 01:53:28;;;;;;;13.20;9.17;;;3.10;99.90;;;;;;5013815;28;20770;-79
2020/12/08 01:55:54;;;;;;;13.97;9.10;;;3.20;99.90;;;;;;5013740;28;20203;-79
2020/12/08 01:58:22;;;;;;;9.67;8.03;;;3.20;99.90;;;;;;5013814;28;20186;-79
2020/12/08 02:00:48;;;;;;;11.33;8.30;;;3.10;99.90;;;;;;5014056;28;20253;-79
2020/12/08 02:03:14;;;;;;;11.93;9.07;;;3.10;99.90;;;;;;5013494;28;20171;-79
2020/12/08 02:05:40;;;;;;;10.40;8.80;;;3.10;99.90;;;;;;5013433;28;20222;-79
2020/12/08 02:08:05;;;;;;;12.33;8.90;;;3.20;99.90;;;;;;5013489;28;20203;-79
2020/12/08 02:10:31;;;;;;;13.03;8.83;;;3.10;99.90;;;;;;5013975;28;20168;-79
2020/12/08 02:12:57;;;;;;;11.43;8.17;;;3.20;99.90;;;;;;5013483;28;20772;-79
2020/12/08 02:15:23;;;;;;;12.50;9.10;;;3.30;99.90;;;;;;5013422;28;20282;-79
2020/12/08 02:17:48;;;;;;;14.17;9.23;;;3.10;99.90;;;;;;5013303;28;20218;-79
2020/12/08 02:20:14;;;;;;;12.70;9.80;;;3.20;99.90;;;;;;5013382;28;20186;-78
2020/12/08 02:22:42;;;;;;;11.70;9.03;;;3.10;99.90;;;;;;5013985;28;20234;-78
2020/12/08 02:25:08;;;;;;;11.90;9.10;;;3.10;99.90;;;;;;5013108;28;20234;-79
2020/12/08 02:27:34;;;;;;;14.37;10.27;;;3.10;99.90;;;;;;5013907;28;20658;-79
2020/12/08 02:29:59;;;;;;;14.60;9.67;;;3.00;99.90;;;;;;5013798;28;20287;-79
2020/12/08 02:32:25;;;;;;;14.20;10.37;;;3.00;99.90;;;;;;5013349;28;20285;-79
2020/12/08 02:34:50;;;;;;;15.20;9.37;;;3.00;99.90;;;;;;5013566;28;20298;-79
2020/12/08 02:37:16;;;;;;;14.43;9.47;;;3.00;99.90;;;;;;5020847;28;20193;-79
2020/12/08 02:39:41;;;;;;;13.93;10.33;;;3.10;99.90;;;;;;5017015;28;20552;-79
2020/12/08 02:42:07;;;;;;;13.63;9.77;;;3.10;99.90;;;;;;5011904;28;20246;-78
2020/12/08 02:44:32;;;;;;;14.57;10.27;;;3.10;99.90;;;;;;4996437;28;20313;-79
2020/12/08 02:46:58;;;;;;;16.03;10.73;;;3.00;99.90;;;;;;4996467;28;20278;-78
2020/12/08 02:49:23;;;;;;;13.83;10.20;;;3.00;99.90;;;;;;4997156;28;20205;-79
2020/12/08 02:51:54;;;;;;;13.47;10.37;;;3.00;99.90;;;;;;4996795;28;20222;-79
2020/12/08 02:54:20;;;;;;;14.43;10.17;;;2.90;99.90;;;;;;4998002;28;20227;-79
2020/12/08 02:56:45;;;;;;;14.93;10.47;;;3.00;99.90;;;;;;4997123;28;20611;-79
2020/12/08 02:59:11;;;;;;;17.57;10.90;;;3.00;99.90;;;;;;4997014;28;20232;-79
2020/12/08 03:01:36;;;;;;;16.27;11.27;;;3.10;99.90;;;;;;4996468;28;20183;-79
2020/12/08 03:04:02;;;;;;;16.30;11.63;;;3.10;99.90;;;;;;4997151;28;20640;-78
2020/12/08 03:06:27;;;;;;;15.73;11.43;;;3.10;99.90;;;;;;4997082;28;20631;-79
2020/12/08 03:08:53;;;;;;;16.53;11.97;;;3.10;99.90;;;;;;4997218;28;20175;-79
2020/12/08 03:11:18;;;;;;;16.97;11.73;;;3.00;99.90;;;;;;4997057;28;20176;-79
2020/12/08 03:13:44;;;;;;;18.73;12.10;;;3.00;99.90;;;;;;4996884;28;20230;-79
2020/12/08 03:16:10;;;;;;;16.20;11.20;;;3.00;99.90;;;;;;4993544;28;20177;-79
2020/12/08 03:18:39;;;;;;;16.53;11.77;;;3.10;99.90;;;;;;4993208;28;20186;-79
2020/12/08 03:21:04;;;;;;;18.37;12.93;;;3.00;99.90;;;;;;5010074;28;20168;-79
2020/12/08 03:23:30;;;;;;;19.07;12.23;;;3.00;99.90;;;;;;5010042;28;20199;-79
2020/12/08 03:25:55;;;;;;;18.57;12.37;;;3.10;99.90;;;;;;4993073;28;20594;-79
2020/12/08 03:28:21;;;;;;;18.37;13.30;;;3.00;99.90;;;;;;4992996;28;20172;-79
2020/12/08 03:30:47;;;;;;;21.77;14.07;;;3.00;99.90;;;;;;4992667;28;20183;-79
2020/12/08 03:33:12;;;;;;;22.67;14.03;;;3.00;99.90;;;;;;4992082;28;20179;-79
2020/12/08 03:35:40;;;;;;;21.10;13.93;;;3.00;99.90;;;;;;4991923;28;20204;-79
2020/12/08 03:38:05;;;;;;;21.03;14.73;;;2.90;99.90;;;;;;4991765;28;20242;-78
2020/12/08 03:40:31;;;;;;;21.07;14.63;;;2.90;99.90;;;;;;5008401;28;20251;-79
2020/12/08 03:42:56;;;;;;;24.30;15.93;;;2.80;99.90;;;;;;5008453;28;20203;-78
2020/12/08 03:45:22;;;;;;;22.80;14.73;;;2.90;99.90;;;;;;5007830;28;20249;-78
2020/12/08 03:47:47;;;;;;;24.87;15.70;;;2.90;99.90;;;;;;4992088;28;20202;-77
2020/12/08 03:50:13;;;;;;;23.40;14.93;;;2.90;99.90;;;;;;4991818;28;20176;-79
2020/12/08 03:52:38;;;;;;;24.27;15.70;;;2.90;99.90;;;;;;4992010;28;20176;-79
2020/12/08 03:55:04;;;;;;;26.70;17.20;;;2.80;99.90;;;;;;4992543;28;20200;-78
2020/12/08 03:57:30;;;;;;;25.73;16.37;;;2.80;99.90;;;;;;4992293;28;20183;-79
2020/12/08 03:59:55;;;;;;;26.10;17.03;;;2.90;99.90;;;;;;4994065;28;20352;-79
2020/12/08 04:02:21;;;;;;;26.47;17.27;;;2.90;99.90;;;;;;5013232;28;20180;-79
2020/12/08 04:04:49;;;;;;;23.60;16.30;;;2.90;99.90;;;;;;4996362;28;20306;-78
2020/12/08 04:07:15;;;;;;;27.47;17.07;;;2.80;99.90;;;;;;4996455;28;20558;-79
2020/12/08 04:09:41;;;;;;;27.83;16.97;;;2.90;99.90;;;;;;4996409;28;20188;-79
2020/12/08 04:12:06;;;;;;;28.03;17.43;;;2.80;99.90;;;;;;4996672;28;20187;-79
2020/12/08 04:14:32;;;;;;;31.37;18.80;;;2.80;99.90;;;;;;4996370;28;20204;-79
2020/12/08 04:16:57;;;;;;;29.77;19.07;;;2.80;99.90;;;;;;4995700;28;20199;-78
2020/12/08 04:19:23;;;;;;;31.20;19.70;;;2.80;99.90;;;;;;4996111;28;20180;-79
2020/12/08 04:21:48;;;;;;;29.83;18.83;;;2.80;99.90;;;;;;4995979;28;20187;-79
2020/12/08 04:24:14;;;;;;;28.30;18.43;;;2.90;99.90;;;;;;4995653;28;20231;-78
2020/12/08 04:26:44;;;;;;;30.20;19.63;;;2.90;99.90;;;;;;4995458;28;20180;-78
2020/12/08 04:29:09;;;;;;;28.77;18.23;;;2.90;99.90;;;;;;5011874;28;20632;-79
2020/12/08 04:31:35;;;;;;;29.83;18.47;;;2.90;99.90;;;;;;4995536;28;20180;-78
2020/12/08 04:34:00;;;;;;;33.97;20.00;;;2.80;99.90;;;;;;5012421;28;20199;-78
2020/12/08 04:36:26;;;;;;;34.57;19.67;;;2.80;99.90;;;;;;4995366;28;20180;-79
2020/12/08 04:38:51;;;;;;;33.03;19.23;;;2.80;99.90;;;;;;4999264;28;20188;-79
2020/12/08 04:41:21;;;;;;;30.90;19.27;;;2.70;99.90;;;;;;4998485;28;20227;-78
2020/12/08 04:43:47;;;;;;;33.53;20.43;;;2.80;99.90;;;;;;4995107;28;20184;-79
2020/12/08 04:46:13;;;;;;;29.10;19.27;;;2.90;99.90;;;;;;4995256;28;20203;-79
2020/12/08 04:48:38;;;;;;;30.83;19.80;;;2.80;99.90;;;;;;4995298;28;20246;-79
2020/12/08 04:51:04;;;;;;;32.57;20.70;;;2.80;99.90;;;;;;4995230;28;20184;-79
2020/12/08 04:53:30;;;;;;;32.10;19.67;;;2.80;99.90;;;;;;5011418;28;20652;-79
2020/12/08 04:55:56;;;;;;;37.57;20.70;;;2.80;99.90;;;;;;4995069;28;20208;-79
2020/12/08 04:58:21;;;;;;;32.47;20.27;;;2.90;99.90;;;;;;4995101;28;20216;-77
2020/12/08 05:00:47;;;;;;;32.77;20.00;;;2.80;99.90;;;;;;4995185;28;20723;-78
2020/12/08 05:03:12;;;;;;;33.67;19.63;;;2.80;99.90;;;;;;4995165;28;20177;-78
2020/12/08 05:05:39;;;;;;;33.80;20.73;;;2.90;99.90;;;;;;4995301;28;20265;-79
2020/12/08 05:08:12;;;;;;;36.10;21.00;;;2.80;99.90;;;;;;5016100;28;20176;-79
2020/12/08 05:10:37;;;;;;;30.40;19.90;;;2.80;99.90;;;;;;5004782;28;20191;-80
2020/12/08 05:13:05;;;;;;;30.90;19.67;;;2.90;99.90;;;;;;5005302;28;20180;-79
2020/12/08 05:15:31;;;;;;;31.83;19.93;;;3.00;99.90;;;;;;5003178;28;20672;-79
2020/12/08 05:18:15;;;;;;;33.03;20.00;;;3.00;99.90;;;;;;4995930;28;20186;-79
2020/12/08 05:20:40;;;;;;;36.50;20.03;;;2.90;99.90;;;;;;5010900;28;20160;-78
2020/12/08 05:23:06;;;;;;;30.87;19.33;;;2.90;99.90;;;;;;4994321;28;20188;-78
2020/12/08 05:25:31;;;;;;;32.27;19.60;;;2.90;99.90;;;;;;4994345;28;20383;-78
2020/12/08 05:27:58;;;;;;;31.80;20.50;;;3.00;99.90;;;;;;4994500;28;20618;-79
2020/12/08 05:30:24;;;;;;;31.57;20.47;;;3.00;99.90;;;;;;4994119;28;20238;-78
2020/12/08 05:32:50;;;;;;;31.63;19.83;;;3.00;99.90;;;;;;4994244;28;20683;-78
2020/12/08 05:35:17;;;;;;;31.50;19.83;;;3.00;99.90;;;;;;4993966;28;20211;-78
2020/12/08 05:37:47;;;;;;;33.40;20.73;;;3.00;99.90;;;;;;4993922;28;20180;-79
2020/12/08 05:40:14;;;;;;;33.10;20.07;;;3.10;99.90;;;;;;4993916;28;20274;-79
2020/12/08 05:42:41;;;;;;;32.50;20.43;;;3.10;99.90;;;;;;4993770;28;20187;-79
2020/12/08 05:45:11;;;;;;;30.80;19.43;;;3.00;99.90;;;;;;5012815;28;20698;-79
2020/12/08 05:47:53;;;;;;;30.57;18.97;;;3.00;99.90;;;;;;4997164;28;20183;-79
2020/12/08 05:50:19;;;;;;;30.30;18.70;;;3.00;99.90;;;;;;5026407;28;20168;-78
2020/12/08 05:52:55;;;;;;;36.90;20.60;;;3.00;99.90;;;;;;5010109;28;20181;-80
2020/12/08 05:55:25;;;;;;;34.43;20.67;;;3.00;99.90;;;;;;4993415;28;20258;-80
2020/12/08 05:57:50;;;;;;;30.97;19.60;;;3.10;99.90;;;;;;4993719;28;20206;-79
2020/12/08 06:00:27;;;;;;;32.53;19.63;;;3.10;99.90;;;;;;4994733;28;20698;-79
2020/12/08 06:02:53;;;;;;;29.80;19.47;;;3.10;99.90;;;;;;4993478;28;20180;-79
2020/12/08 06:05:29;;;;;;;31.17;18.87;;;3.20;99.90;;;;;;4993613;28;20596;-79
2020/12/08 06:07:55;;;;;;;29.00;18.33;;;3.20;99.90;;;;;;5010074;28;20191;-80
2020/12/08 06:10:20;;;;;;;31.17;19.33;;;3.20;99.90;;;;;;4994501;28;20188;-79
2020/12/08 06:13:01;;;;;;;27.23;17.73;;;3.10;99.90;;;;;;4993999;28;20176;-79
2020/12/08 06:15:39;;;;;;;31.20;18.83;;;3.20;99.90;;;;;;5024691;28;20232;-76
2020/12/08 06:18:05;;;;;;;30.97;19.40;;;3.20;99.90;;;;;;4993008;28;20186;-79
2020/12/08 06:20:31;;;;;;;28.43;18.30;;;3.20;99.90;;;;;;4997352;28;20184;-79
2020/12/08 06:22:59;;;;;;;31.87;19.17;;;3.20;99.90;;;;;;4982208;28;20189;-76
2020/12/08 06:25:25;;;;;;;28.53;18.73;;;3.20;99.90;;;;;;5009971;28;20577;-77
2020/12/08 06:27:51;;;;;;;29.80;17.80;;;3.10;99.90;;;;;;5009400;28;20187;-77
2020/12/08 06:30:22;;;;;;;28.63;17.90;;;3.20;99.90;;;;;;4993979;28;20176;-77
2020/12/08 06:32:49;;;;;;;28.73;18.93;;;3.20;99.90;;;;;;5010606;28;20656;-78
2020/12/08 06:35:15;;;;;;;29.27;18.47;;;3.20;99.90;;;;;;4997541;28;20214;-77
2020/12/08 06:38:00;;;;;;;29.37;18.77;;;3.20;99.90;;;;;;5013636;28;20225;-78
2020/12/08 06:40:30;;;;;;;30.77;18.60;;;3.30;99.90;;;;;;5000979;28;20183;-80
2020/12/08 06:42:56;;;;;;;31.53;18.23;;;3.20;99.90;;;;;;5017619;28;20180;-78
2020/12/08 06:45:23;;;;;;;28.50;17.77;;;3.20;99.90;;;;;;5012345;28;20215;-79
2020/12/08 06:47:48;;;;;;;30.20;18.53;;;3.20;99.90;;;;;;4988765;28;20188;-77
2020/12/08 06:50:21;;;;;;;29.17;17.93;;;3.30;99.90;;;;;;4990810;28;20175;-78
2020/12/08 06:52:59;;;;;;;29.40;18.50;;;3.30;99.90;;;;;;5025607;28;20183;-77
2020/12/08 06:55:25;;;;;;;29.77;18.37;;;3.20;99.90;;;;;;5005714;28;20557;-77
2020/12/08 06:57:51;;;;;;;28.73;17.67;;;3.30;99.90;;;;;;4995040;28;20179;-77
2020/12/08 07:00:17;;;;;;;27.77;18.57;;;3.30;99.90;;;;;;5011546;28;20241;-77
2020/12/08 07:02:49;;;;;;;29.70;18.20;;;3.40;99.90;;;;;;4995950;28;20187;-76
2020/12/08 07:05:33;;;;;;;29.57;18.70;;;3.40;99.90;;;;;;5007795;28;20560;-76
2020/12/08 07:08:02;;;;;;;28.83;18.60;;;3.30;99.90;;;;;;4992957;28;20180;-81
2020/12/08 07:10:28;;;;;;;31.80;19.87;;;3.30;99.90;;;;;;4995616;28;20182;-78
2020/12/08 07:12:54;;;;;;;30.03;19.07;;;3.40;99.90;;;;;;4988133;28;20183;-77
2020/12/08 07:15:20;;;;;;;32.73;19.27;;;3.40;99.90;;;;;;4995015;28;20209;-77
2020/12/08 07:17:59;;;;;;;29.33;18.87;;;3.40;99.90;;;;;;4995168;28;20270;-77
2020/12/08 07:20:25;;;;;;;34.10;19.97;;;3.40;99.90;;;;;;4995720;28;20270;-78
2020/12/08 07:22:51;;;;;;;29.07;18.93;;;3.40;99.90;;;;;;4995011;28;20243;-78
2020/12/08 07:25:16;;;;;;;28.80;18.03;;;3.40;99.90;;;;;;4994564;28;20210;-78
2020/12/08 07:27:47;;;;;;;27.83;18.10;;;3.40;99.90;;;;;;4976678;28;20697;-78
2020/12/08 07:30:12;;;;;;;30.00;18.23;;;3.50;99.90;;;;;;4993881;28;20244;-79
2020/12/08 07:32:38;;;;;;;27.97;17.77;;;3.40;99.90;;;;;;4994988;28;20585;-79
2020/12/08 07:35:04;;;;;;;29.60;18.70;;;3.50;99.90;;;;;;4994174;28;20577;-78
2020/12/08 07:37:39;;;;;;;28.70;18.33;;;3.50;99.90;;;;;;4977306;28;20197;-78
2020/12/08 07:40:06;;;;;;;30.80;18.37;;;3.50;99.90;;;;;;4991504;28;20208;-78
2020/12/08 07:42:32;;;;;;;29.70;19.10;;;3.50;99.90;;;;;;4991349;28;20183;-78
2020/12/08 07:44:57;;;;;;;29.97;18.27;;;3.50;99.90;;;;;;5007445;28;20213;-78
2020/12/08 07:47:23;;;;;;;27.70;17.40;;;3.50;99.90;;;;;;4991468;28;20176;-78
2020/12/08 07:49:48;;;;;;;29.23;18.60;;;3.50;99.90;;;;;;5007830;28;20519;-78
2020/12/08 07:52:16;;;;;;;27.87;17.27;;;3.50;99.90;;;;;;4991477;28;20681;-78
2020/12/08 07:54:42;;;;;;;33.43;20.87;;;3.60;99.90;;;;;;5007444;28;20210;-79
2020/12/08 07:57:07;;;;;;;28.03;17.67;;;3.60;99.90;;;;;;5004935;28;20539;-79
2020/12/08 07:59:33;;;;;;;29.80;18.57;;;3.60;99.90;;;;;;5005719;28;20680;-78
2020/12/08 08:02:00;;;;;;;27.47;18.40;;;3.70;99.90;;;;;;5009893;28;20574;-78
2020/12/08 08:04:26;;;;;;;28.60;18.03;;;3.70;99.90;;;;;;5011093;28;20250;-79
2020/12/08 08:06:52;;;;;;;25.77;17.30;;;3.70;99.90;;;;;;5011212;28;20207;-77
2020/12/08 08:09:17;;;;;;;28.60;17.83;;;3.60;99.90;;;;;;5011233;28;20180;-79
2020/12/08 08:11:43;;;;;;;25.10;16.47;;;3.70;99.90;;;;;;5010862;28;20233;-78
2020/12/08 08:14:09;;;;;;;26.70;17.23;;;3.80;99.90;;;;;;5007193;28;20687;-78
2020/12/08 08:16:34;;;;;;;26.90;16.90;;;3.70;99.90;;;;;;4991520;28;20234;-78
2020/12/08 08:19:00;;;;;;;26.53;17.63;;;3.80;99.90;;;;;;5007474;28;20640;-78
2020/12/08 08:21:26;;;;;;;26.57;16.83;;;3.80;99.90;;;;;;4991068;28;20703;-81
2020/12/08 08:23:52;;;;;;;26.63;16.77;;;3.80;99.90;;;;;;4991243;28;20299;-79
2020/12/08 08:26:17;;;;;;;24.17;16.70;;;3.80;99.90;;;;;;4991035;28;20208;-79
2020/12/08 08:28:43;;;;;;;24.63;16.57;;;3.90;99.90;;;;;;4999277;28;20656;-78
2020/12/08 08:31:09;;;;;;;28.10;16.43;;;3.80;99.90;;;;;;4990871;28;20274;-79
2020/12/08 08:33:34;;;;;;;25.30;17.07;;;3.80;99.90;;;;;;4991134;28;20180;-78
2020/12/08 08:36:00;;;;;;;27.90;17.73;;;3.90;99.90;;;;;;4991311;28;20679;-78
2020/12/08 08:38:28;;;;;;;29.63;18.10;;;3.90;99.90;;;;;;4991552;28;20187;-78
2020/12/08 08:40:54;;;;;;;23.97;17.07;;;3.80;99.90;;;;;;4991233;28;20181;-78
2020/12/08 08:43:20;;;;;;;28.20;17.93;;;3.80;99.90;;;;;;4997362;28;20632;-78
2020/12/08 08:45:46;;;;;;;29.07;17.00;;;3.90;99.90;;;;;;5013033;28;20211;-77
2020/12/08 08:48:11;;;;;;;29.53;19.70;;;4.00;99.90;;;;;;5014299;28;20168;-77
2020/12/08 08:50:37;;;;;;;26.93;18.23;;;4.00;99.90;;;;;;5014275;28;20185;-76
2020/12/08 08:53:02;;;;;;;29.70;18.57;;;4.00;99.90;;;;;;4998438;28;20172;-79
2020/12/08 08:55:28;;;;;;;29.73;18.67;;;3.90;99.90;;;;;;5014613;28;20585;-78
2020/12/08 08:57:54;;;;;;;27.00;17.17;;;4.00;99.90;;;;;;5018886;28;20251;-85
2020/12/08 09:00:20;;;;;;;29.73;16.53;;;4.00;99.90;;;;;;5018360;28;20180;-76
2020/12/08 09:02:45;;;;;;;25.77;16.73;;;4.00;99.90;;;;;;4998032;28;20192;-76
2020/12/08 09:05:13;;;;;;;27.47;17.13;;;4.00;99.90;;;;;;5009250;28;20242;-76
2020/12/08 09:07:39;;;;;;;24.10;16.60;;;4.10;99.90;;;;;;4997851;28;20164;-76
2020/12/08 09:10:05;;;;;;;26.73;17.67;;;4.00;99.90;;;;;;4997426;28;20179;-75
2020/12/08 09:12:30;;;;;;;25.67;17.50;;;4.10;99.90;;;;;;4997225;28;20317;-76
2020/12/08 09:14:59;;;;;;;26.47;17.27;;;4.10;99.90;;;;;;4977652;28;20696;-77
2020/12/08 09:17:24;;;;;;;25.73;16.80;;;4.10;99.90;;;;;;5013701;28;20175;-76
2020/12/08 09:19:51;;;;;;;25.40;17.00;;;4.10;99.90;;;;;;4995556;28;20183;-76
2020/12/08 09:22:17;;;;;;;26.40;17.27;;;4.20;99.90;;;;;;5013652;28;20179;-77
2020/12/08 09:24:42;;;;;;;24.50;17.20;;;4.20;99.90;;;;;;4997894;28;20252;-76
2020/12/08 09:27:08;;;;;;;24.83;17.37;;;4.20;99.90;;;;;;4977454;28;20604;-76
2020/12/08 09:29:34;;;;;;;26.67;17.33;;;4.20;99.90;;;;;;5004234;28;20172;-76
2020/12/08 09:32:00;;;;;;;27.10;17.50;;;4.20;99.90;;;;;;5006842;28;20172;-77
2020/12/08 09:34:26;;;;;;;26.13;17.43;;;4.20;99.90;;;;;;5007375;28;20200;-78
2020/12/08 09:36:52;;;;;;;26.40;17.43;;;4.30;99.90;;;;;;4995560;28;20182;-78
2020/12/08 09:39:18;;;;;;;24.83;16.67;;;4.30;99.90;;;;;;5015340;28;20180;-77
2020/12/08 09:41:43;;;;;;;24.67;16.60;;;4.40;99.90;;;;;;5011609;28;20463;-79
2020/12/08 09:44:10;;;;;;;26.47;17.33;;;4.40;99.90;;;;;;4988701;28;20649;-77
2020/12/08 09:46:42;;;;;;;25.33;16.93;;;4.40;99.90;;;;;;5004871;28;20175;-77
2020/12/08 09:49:08;;;;;;;25.10;17.50;;;4.40;99.90;;;;;;4979253;28;20203;-77
2020/12/08 09:51:34;;;;;;;25.23;17.17;;;4.40;99.90;;;;;;5005342;28;20647;-77
2020/12/08 09:53:59;;;;;;;28.00;17.83;;;4.50;99.90;;;;;;5011747;28;20647;-77
2020/12/08 09:56:25;;;;;;;23.73;16.57;;;4.50;99.90;;;;;;5006122;28;20259;-79
2020/12/08 09:58:54;;;;;;;25.93;17.17;;;4.50;99.90;;;;;;5004465;28;20273;-78
2020/12/08 10:01:35;;;;;;;25.00;16.73;;;4.40;99.90;;;;;;5003798;28;20210;-81
2020/12/08 10:04:00;;;;;;;24.50;16.63;;;4.50;99.90;;;;;;5020530;28;20213;-80
2020/12/08 10:06:26;;;;;;;24.37;16.50;;;4.60;99.90;;;;;;5012454;28;20181;-80
2020/12/08 10:08:56;;;;;;;24.13;16.10;;;4.60;99.90;;;;;;4988048;28;20176;-82
2020/12/08 10:11:22;;;;;;;22.87;16.37;;;4.70;99.90;;;;;;4989744;28;20175;-80
2020/12/08 10:13:48;;;;;;;22.90;15.53;;;4.70;99.90;;;;;;5010678;28;20176;-77
2020/12/08 10:16:18;;;;;;;27.67;16.13;;;4.70;99.90;;;;;;5010823;28;20272;-82
2020/12/08 10:18:43;;;;;;;22.07;15.90;;;4.70;99.90;;;;;;4995618;28;20174;-79
2020/12/08 10:21:09;;;;;;;24.93;17.53;;;4.70;99.90;;;;;;5025114;28;20551;-82
2020/12/08 10:23:34;;;;;;;25.37;17.77;;;4.80;99.90;;;;;;4993745;28;20183;-82
2020/12/08 10:26:00;;;;;;;25.23;16.70;;;4.80;99.90;;;;;;4998569;28;20204;-82
2020/12/08 10:28:25;;;;;;;23.17;16.00;;;4.80;99.90;;;;;;4996814;28;20644;-82
2020/12/08 10:30:51;;;;;;;22.93;15.93;;;4.80;99.90;;;;;;4999267;28;20177;-83
2020/12/08 10:33:17;;;;;;;73.37;44.00;;;4.80;99.90;;;;;;4998516;28;20857;-82
2020/12/08 10:35:42;;;;;;;27.80;18.47;;;4.80;99.90;;;;;;4982323;28;20211;-82
2020/12/08 10:38:08;;;;;;;22.73;16.57;;;4.90;99.90;;;;;;4996886;28;20663;-83
2020/12/08 10:40:33;;;;;;;25.40;17.00;;;4.90;99.90;;;;;;4999086;28;20178;-79
2020/12/08 10:42:59;;;;;;;21.97;15.90;;;5.00;99.90;;;;;;4996027;28;20677;-83
2020/12/08 10:45:25;;;;;;;23.60;15.97;;;5.00;99.90;;;;;;5015472;28;20251;-82
2020/12/08 10:47:50;;;;;;;21.97;15.87;;;5.00;99.90;;;;;;4995697;28;20190;-82
2020/12/08 10:50:16;;;;;;;22.90;15.90;;;5.00;99.90;;;;;;5015359;28;20278;-82
2020/12/08 10:52:41;;;;;;;25.33;15.93;;;4.90;99.90;;;;;;4996167;28;20181;-83
2020/12/08 10:55:07;;;;;;;23.73;16.50;;;4.90;99.90;;;;;;4999024;28;20286;-83
2020/12/08 10:57:33;;;;;;;24.03;15.60;;;4.90;99.90;;;;;;4996005;28;20645;-83
2020/12/08 10:59:58;;;;;;;22.40;16.17;;;4.90;99.90;;;;;;4999330;28;20190;-82
2020/12/08 11:02:24;;;;;;;22.70;16.10;;;4.90;99.90;;;;;;4999183;28;20180;-82
2020/12/08 11:04:50;;;;;;;23.60;16.33;;;4.90;99.90;;;;;;4995671;28;20231;-83
2020/12/08 11:07:15;;;;;;;21.67;16.27;;;4.80;99.90;;;;;;4998878;28;20636;-83
2020/12/08 11:09:43;;;;;;;22.90;16.07;;;4.90;99.90;;;;;;5014999;28;20530;-83
2020/12/08 11:12:09;;;;;;;20.30;14.97;;;4.90;99.90;;;;;;5015124;28;20178;-83
2020/12/08 11:14:35;;;;;;;22.80;15.83;;;4.90;99.90;;;;;;5015472;28;20221;-83
2020/12/08 11:17:01;;;;;;;23.20;15.27;;;4.90;99.90;;;;;;5015493;28;20713;-83
2020/12/08 11:19:26;;;;;;;25.67;15.83;;;5.00;99.90;;;;;;5015412;28;20187;-82
2020/12/08 11:21:52;;;;;;;21.53;15.30;;;5.10;99.90;;;;;;5015023;28;20219;-84
2020/12/08 11:24:17;;;;;;;22.57;16.40;;;5.20;99.90;;;;;;4982855;28;20215;-83
2020/12/08 11:26:45;;;;;;;24.40;15.63;;;5.20;99.90;;;;;;4998049;28;20221;-84
2020/12/08 11:29:10;;;;;;;22.27;15.93;;;5.20;99.90;;;;;;4998929;28;20173;-83
2020/12/08 11:31:36;;;;;;;22.67;15.17;;;5.30;99.90;;;;;;4983127;28;20179;-82
2020/12/08 11:34:02;;;;;;;21.07;15.40;;;5.30;99.90;;;;;;4982719;28;20294;-84
2020/12/08 11:36:27;;;;;;;20.00;15.27;;;5.30;99.90;;;;;;4998699;28;20192;-82
2020/12/08 11:38:53;;;;;;;22.90;16.03;;;5.40;99.90;;;;;;4996006;28;20184;-82
2020/12/08 11:41:18;;;;;;;21.30;15.30;;;5.30;99.90;;;;;;4995846;28;20587;-83
2020/12/08 11:43:44;;;;;;;22.70;15.33;;;5.30;99.90;;;;;;4995334;28;20203;-82
2020/12/08 11:46:13;;;;;;;19.63;14.13;;;5.30;99.90;;;;;;5025050;28;20213;-81
2020/12/08 11:48:40;;;;;;;22.33;16.17;;;5.30;99.90;;;;;;5016821;28;20253;-82
2020/12/08 11:51:06;;;;;;;22.37;16.43;;;5.20;99.90;;;;;;5017345;28;20672;-82
2020/12/08 11:53:31;;;;;;;21.77;15.70;;;5.20;99.90;;;;;;5016256;28;20174;-81
2020/12/08 11:55:57;;;;;;;21.77;14.67;;;5.10;99.90;;;;;;5016195;28;20225;-81
2020/12/08 11:58:23;;;;;;;23.37;15.63;;;5.20;99.90;;;;;;5016475;28;20254;-80
2020/12/08 12:00:48;;;;;;;22.27;16.17;;;5.20;99.90;;;;;;5016418;28;20181;-79
2020/12/08 12:03:14;;;;;;;21.97;15.67;;;5.20;99.90;;;;;;5018046;28;20673;-79
2020/12/08 12:05:39;;;;;;;23.80;16.63;;;5.30;99.90;;;;;;5017033;28;20207;-80
2020/12/08 12:08:05;;;;;;;20.97;16.07;;;5.30;99.90;;;;;;5017721;28;20175;-81
2020/12/08 12:10:31;;;;;;;21.23;16.27;;;5.30;99.90;;;;;;5017328;28;20309;-80
2020/12/08 12:12:56;;;;;;;22.10;16.27;;;5.30;99.90;;;;;;4992231;28;20241;-80
2020/12/08 12:15:22;;;;;;;22.70;16.20;;;5.40;99.90;;;;;;4979260;28;20204;-82
2020/12/08 12:17:48;;;;;;;22.17;15.50;;;5.50;99.90;;;;;;4983205;28;20579;-81
2020/12/08 12:20:13;;;;;;;23.20;15.83;;;5.50;99.90;;;;;;4984173;28;20237;-78
2020/12/08 12:22:39;;;;;;;20.87;15.97;;;5.50;99.90;;;;;;5003152;28;20186;-82
2020/12/08 12:25:05;;;;;;;23.20;15.37;;;5.50;99.90;;;;;;5003145;28;20240;-77
2020/12/08 12:27:31;;;;;;;19.47;15.23;;;5.60;99.90;;;;;;5001305;28;20171;-78
2020/12/08 12:29:57;;;;;;;21.87;15.53;;;5.60;99.90;;;;;;5000044;28;20187;-79
2020/12/08 12:32:22;;;;;;;19.27;14.47;;;5.60;99.90;;;;;;5002371;28;20175;-78
2020/12/08 12:34:48;;;;;;;20.57;14.97;;;5.60;99.90;;;;;;5001860;28;20223;-78